Time;durP1;ratioP1;P1;durP2;ratioP2;P2;SDS_P1;SDS_P2;PMS_P1;PMS_P2;Temp;Humidity;BMP_temperature;BMP_pressure;BME280_temperature;BME280_humidity;BME280_pressure;Samples;Min_cycle;Max_cycle;Signal;HPM_P1;HPM_P2
2023/08/27 00:00:50;;;;;;;20.20;10.02;;;12.00;99.80;;;;;;4994703;28;21097;-75
2023/08/27 00:03:17;;;;;;;17.45;10.05;;;12.00;100.00;;;;;;5000401;28;20053;-75
2023/08/27 00:05:45;;;;;;;20.30;10.40;;;12.00;100.00;;;;;;5004820;28;20041;-75
2023/08/27 00:08:11;;;;;;;21.35;10.68;;;12.00;100.00;;;;;;5010003;28;20119;-75
2023/08/27 00:10:39;;;;;;;17.20;10.13;;;12.00;100.00;;;;;;5002378;28;20128;-75
2023/08/27 00:13:05;;;;;;;18.73;10.50;;;12.00;100.00;;;;;;4998340;28;20045;-75
2023/08/27 00:15:32;;;;;;;19.13;10.23;;;12.00;100.00;;;;;;4991784;28;20136;-75
2023/08/27 00:17:59;;;;;;;23.27;11.57;;;12.00;100.00;;;;;;4994258;28;20050;-75
2023/08/27 00:20:26;;;;;;;16.92;10.38;;;12.00;100.00;;;;;;4993341;28;20558;-75
2023/08/27 00:22:53;;;;;;;21.42;10.63;;;12.00;99.90;;;;;;4991957;28;20138;-74
2023/08/27 00:25:20;;;;;;;19.80;9.43;;;11.90;99.70;;;;;;4993709;28;20152;-75
2023/08/27 00:27:47;;;;;;;18.90;9.45;;;11.90;99.80;;;;;;4993266;28;20082;-71
2023/08/27 00:30:14;;;;;;;21.35;9.98;;;11.80;99.60;;;;;;4994243;28;20058;-71
2023/08/27 00:32:40;;;;;;;16.13;9.02;;;11.80;99.40;;;;;;4993415;28;20060;-71
2023/08/27 00:35:08;;;;;;;15.85;8.55;;;11.80;99.30;;;;;;4997236;28;20107;-74
2023/08/27 00:37:35;;;;;;;15.18;8.25;;;11.70;99.20;;;;;;4996425;28;20126;-71
2023/08/27 00:40:03;;;;;;;25.85;9.02;;;11.70;99.50;;;;;;4999477;28;20124;-71
2023/08/27 00:42:30;;;;;;;15.13;8.75;;;11.60;99.40;;;;;;4998806;28;20085;-71
2023/08/27 00:44:57;;;;;;;18.40;10.13;;;11.60;99.70;;;;;;4998411;28;20077;-71
2023/08/27 00:47:24;;;;;;;19.33;9.88;;;11.60;100.00;;;;;;4995270;28;20052;-71
2023/08/27 00:49:51;;;;;;;16.67;10.00;;;11.60;100.00;;;;;;4994095;28;20396;-71
2023/08/27 00:52:19;;;;;;;20.42;10.88;;;11.50;100.00;;;;;;4998740;28;20054;-71
2023/08/27 00:54:47;;;;;;;23.15;11.48;;;11.50;100.00;;;;;;4989828;28;20090;-71
2023/08/27 00:57:15;;;;;;;19.83;11.13;;;11.60;100.00;;;;;;4999320;28;20140;-71
2023/08/27 00:59:42;;;;;;;19.70;10.13;;;11.60;100.00;;;;;;4995848;28;20059;-71
2023/08/27 01:02:10;;;;;;;20.02;10.85;;;11.60;100.00;;;;;;4997808;28;20129;-71
2023/08/27 01:04:37;;;;;;;15.85;10.10;;;11.60;100.00;;;;;;4989112;28;20496;-71
2023/08/27 01:07:16;;;;;;;19.95;10.23;;;11.60;100.00;;;;;;4994757;28;20103;-72
2023/08/27 01:09:54;;;;;;;22.85;11.32;;;11.60;100.00;;;;;;4990809;28;20666;-71
2023/08/27 01:12:42;;;;;;;20.98;11.13;;;11.60;100.00;;;;;;4996122;28;20096;-71
2023/08/27 01:15:13;;;;;;;20.52;11.10;;;11.60;100.00;;;;;;5002028;28;20567;-71
2023/08/27 01:17:41;;;;;;;21.88;11.35;;;11.60;100.00;;;;;;5003113;28;20070;-71
2023/08/27 01:20:09;;;;;;;21.60;12.52;;;11.60;100.00;;;;;;5002924;28;20054;-71
2023/08/27 01:22:36;;;;;;;23.38;11.82;;;11.60;100.00;;;;;;5003123;28;20049;-71
2023/08/27 01:25:06;;;;;;;19.55;11.93;;;11.60;100.00;;;;;;4997293;28;20846;-71
2023/08/27 01:27:48;;;;;;;31.60;11.57;;;11.60;100.00;;;;;;5011349;28;20042;-71
2023/08/27 01:30:26;;;;;;;25.60;12.68;;;11.60;100.00;;;;;;5004603;28;20129;-71
2023/08/27 01:33:13;;;;;;;21.15;11.23;;;11.60;100.00;;;;;;5005079;28;20064;-71
2023/08/27 01:35:41;;;;;;;23.75;12.40;;;11.60;100.00;;;;;;4992220;28;20126;-71
2023/08/27 01:38:08;;;;;;;21.38;10.45;;;11.60;100.00;;;;;;4997824;28;20152;-72
2023/08/27 01:40:35;;;;;;;19.05;11.95;;;11.60;100.00;;;;;;5007382;28;20046;-71
2023/08/27 01:43:02;;;;;;;22.23;10.90;;;11.60;100.00;;;;;;5000460;28;20073;-71
2023/08/27 01:45:29;;;;;;;24.23;12.90;;;11.60;100.00;;;;;;5010815;28;20063;-71
2023/08/27 01:47:56;;;;;;;19.33;11.85;;;11.60;100.00;;;;;;4996863;28;20069;-71
2023/08/27 01:50:23;;;;;;;25.38;12.38;;;11.50;100.00;;;;;;5007454;28;20052;-71
2023/08/27 01:52:49;;;;;;;24.00;12.35;;;11.50;100.00;;;;;;5011420;28;20747;-71
2023/08/27 01:55:16;;;;;;;24.35;11.98;;;11.50;100.00;;;;;;4998073;28;20054;-71
2023/08/27 01:57:44;;;;;;;23.52;12.40;;;11.50;100.00;;;;;;5008755;28;20049;-71
2023/08/27 02:00:14;;;;;;;20.48;11.82;;;11.50;100.00;;;;;;5005737;28;20757;-71
2023/08/27 02:02:41;;;;;;;23.02;12.98;;;11.40;100.00;;;;;;4997154;28;20155;-71
2023/08/27 02:05:08;;;;;;;23.95;13.25;;;11.40;100.00;;;;;;5002030;28;20050;-71
2023/08/27 02:07:37;;;;;;;18.75;11.07;;;11.40;100.00;;;;;;5005436;28;20046;-71
2023/08/27 02:10:08;;;;;;;20.10;12.02;;;11.40;100.00;;;;;;5000259;28;20123;-71
2023/08/27 02:12:35;;;;;;;22.70;12.32;;;11.40;100.00;;;;;;4998943;28;20060;-71
2023/08/27 02:15:03;;;;;;;24.00;11.27;;;11.40;100.00;;;;;;5006951;28;20453;-71
2023/08/27 02:17:30;;;;;;;25.05;12.82;;;11.40;100.00;;;;;;4998088;28;20082;-71
2023/08/27 02:19:57;;;;;;;25.63;13.60;;;11.40;100.00;;;;;;4999215;28;20119;-71
2023/08/27 02:22:24;;;;;;;21.65;12.32;;;11.50;100.00;;;;;;4997954;28;20044;-72
2023/08/27 02:24:52;;;;;;;24.60;12.80;;;11.50;100.00;;;;;;4999891;28;20041;-71
2023/08/27 02:27:19;;;;;;;25.92;11.50;;;11.50;100.00;;;;;;4995548;28;20567;-71
2023/08/27 02:29:46;;;;;;;19.98;11.43;;;11.50;100.00;;;;;;5005124;28;20092;-71
2023/08/27 02:32:13;;;;;;;26.88;12.00;;;11.40;100.00;;;;;;5000779;28;20162;-71
2023/08/27 02:34:39;;;;;;;20.35;10.93;;;11.40;100.00;;;;;;5000140;28;20046;-71
2023/08/27 02:37:06;;;;;;;20.05;11.27;;;11.40;100.00;;;;;;4998594;28;20521;-71
2023/08/27 02:39:34;;;;;;;22.70;10.75;;;11.40;100.00;;;;;;5002166;28;20127;-71
2023/08/27 02:42:01;;;;;;;17.52;10.95;;;11.30;100.00;;;;;;5010067;28;20050;-71
2023/08/27 02:44:28;;;;;;;18.67;10.10;;;11.20;100.00;;;;;;4996474;28;20081;-71
2023/08/27 02:46:54;;;;;;;18.77;11.10;;;11.20;100.00;;;;;;4997738;28;20073;-71
2023/08/27 02:49:21;;;;;;;18.80;9.80;;;11.20;100.00;;;;;;4998738;28;20089;-71
2023/08/27 02:51:48;;;;;;;20.75;11.20;;;11.20;100.00;;;;;;4998339;28;20167;-71
2023/08/27 02:54:15;;;;;;;19.27;10.13;;;11.20;100.00;;;;;;4997313;28;20077;-71
2023/08/27 02:56:42;;;;;;;20.75;10.00;;;11.10;100.00;;;;;;4997620;28;20149;-71
2023/08/27 02:59:09;;;;;;;20.52;11.13;;;11.00;100.00;;;;;;4998037;28;20050;-71
2023/08/27 03:01:36;;;;;;;23.63;11.20;;;11.00;100.00;;;;;;4999351;28;20046;-71
2023/08/27 03:04:03;;;;;;;16.38;10.50;;;11.00;100.00;;;;;;4999475;28;20046;-71
2023/08/27 03:06:30;;;;;;;24.10;11.02;;;10.90;100.00;;;;;;4992717;28;20511;-71
2023/08/27 03:08:57;;;;;;;22.80;10.32;;;10.90;100.00;;;;;;5001045;28;20129;-71
2023/08/27 03:11:24;;;;;;;18.60;10.60;;;10.90;100.00;;;;;;4989315;28;20574;-71
2023/08/27 03:13:51;;;;;;;19.27;11.07;;;10.90;100.00;;;;;;5005642;28;20503;-72
2023/08/27 03:16:18;;;;;;;21.85;10.40;;;10.90;100.00;;;;;;5005589;28;20046;-71
2023/08/27 03:18:46;;;;;;;19.83;10.43;;;10.80;100.00;;;;;;5001908;28;20053;-74
2023/08/27 03:21:12;;;;;;;22.13;10.68;;;10.80;100.00;;;;;;5000192;28;20489;-75
2023/08/27 03:23:39;;;;;;;18.65;11.07;;;10.80;100.00;;;;;;5001322;28;20828;-75
2023/08/27 03:26:08;;;;;;;22.55;10.70;;;10.80;100.00;;;;;;5000945;28;20062;-75
2023/08/27 03:28:35;;;;;;;22.58;9.95;;;10.80;100.00;;;;;;5000710;28;20041;-75
2023/08/27 03:31:03;;;;;;;18.58;9.48;;;10.80;100.00;;;;;;4995875;28;20050;-74
2023/08/27 03:33:31;;;;;;;15.00;9.57;;;10.80;100.00;;;;;;5003415;28;20572;-75
2023/08/27 03:36:00;;;;;;;15.77;9.18;;;10.80;100.00;;;;;;5003163;28;20100;-75
2023/08/27 03:38:27;;;;;;;17.10;9.32;;;10.80;100.00;;;;;;5004021;28;20061;-74
2023/08/27 03:40:54;;;;;;;22.60;9.30;;;10.70;100.00;;;;;;4997557;28;20100;-75
2023/08/27 03:43:21;;;;;;;15.32;8.55;;;10.60;100.00;;;;;;5000139;28;20637;-75
2023/08/27 03:45:48;;;;;;;15.82;8.65;;;10.60;100.00;;;;;;4998656;28;20752;-75
2023/08/27 03:48:15;;;;;;;16.83;9.40;;;10.60;100.00;;;;;;5006071;28;20061;-75
2023/08/27 03:50:42;;;;;;;15.23;8.80;;;10.60;100.00;;;;;;4998388;28;20109;-74
2023/08/27 03:53:10;;;;;;;17.83;9.57;;;10.60;100.00;;;;;;5006225;28;20132;-75
2023/08/27 03:55:39;;;;;;;17.05;9.75;;;10.60;100.00;;;;;;4995270;28;20082;-74
2023/08/27 03:58:09;;;;;;;18.92;9.95;;;10.60;100.00;;;;;;5000028;28;20046;-75
2023/08/27 04:00:37;;;;;;;15.65;8.68;;;10.60;100.00;;;;;;5002927;28;20045;-74
2023/08/27 04:03:05;;;;;;;17.10;9.57;;;10.60;100.00;;;;;;4990231;28;20058;-74
2023/08/27 04:05:32;;;;;;;21.40;8.80;;;10.60;100.00;;;;;;4999718;28;20054;-74
2023/08/27 04:07:59;;;;;;;15.18;9.18;;;10.60;100.00;;;;;;5011619;28;20449;-74
2023/08/27 04:10:26;;;;;;;19.38;9.50;;;10.60;100.00;;;;;;5001832;28;20141;-74
2023/08/27 04:12:54;;;;;;;20.85;10.27;;;10.60;100.00;;;;;;4995461;28;20861;-74
2023/08/27 04:15:21;;;;;;;15.95;9.70;;;10.60;100.00;;;;;;5006499;28;20054;-75
2023/08/27 04:17:48;;;;;;;16.30;9.40;;;10.60;100.00;;;;;;5002347;28;20049;-75
2023/08/27 04:20:15;;;;;;;16.75;10.35;;;10.60;100.00;;;;;;5003564;28;20664;-74
2023/08/27 04:22:42;;;;;;;19.95;10.18;;;10.60;100.00;;;;;;5002576;28;20057;-75
2023/08/27 04:25:10;;;;;;;14.35;9.40;;;10.70;100.00;;;;;;4998975;28;20137;-74
2023/08/27 04:27:36;;;;;;;18.42;9.77;;;10.60;100.00;;;;;;4998760;28;20584;-74
2023/08/27 04:30:05;;;;;;;19.45;9.90;;;10.60;100.00;;;;;;4995074;28;20569;-75
2023/08/27 04:32:31;;;;;;;16.65;9.38;;;10.60;100.00;;;;;;4996849;28;20133;-74
2023/08/27 04:34:58;;;;;;;14.30;9.38;;;10.70;100.00;;;;;;5000962;28;20089;-75
2023/08/27 04:37:25;;;;;;;16.77;9.60;;;10.70;100.00;;;;;;4996531;28;20042;-75
2023/08/27 04:39:52;;;;;;;16.58;9.48;;;10.80;100.00;;;;;;5003690;28;20152;-75
2023/08/27 04:42:19;;;;;;;16.25;9.52;;;10.80;100.00;;;;;;5003273;28;20081;-75
2023/08/27 04:44:46;;;;;;;17.08;10.13;;;10.90;100.00;;;;;;4994159;28;20050;-75
2023/08/27 04:47:13;;;;;;;17.83;9.88;;;11.00;100.00;;;;;;5004461;28;20046;-74
2023/08/27 04:49:40;;;;;;;18.88;10.65;;;11.00;100.00;;;;;;5007168;28;20136;-75
2023/08/27 04:52:07;;;;;;;15.02;9.75;;;11.10;100.00;;;;;;5006521;28;20049;-74
2023/08/27 04:54:55;;;;;;;21.83;9.40;;;11.20;100.00;;;;;;4998650;28;20060;-74
2023/08/27 04:57:22;;;;;;;14.75;9.82;;;11.20;100.00;;;;;;4999980;28;20127;-74
2023/08/27 04:59:50;;;;;;;13.57;9.13;;;11.30;100.00;;;;;;5009568;28;20162;-74
2023/08/27 05:02:17;;;;;;;17.88;10.15;;;11.30;100.00;;;;;;4997703;28;20049;-71
2023/08/27 05:04:44;;;;;;;17.35;10.10;;;11.40;100.00;;;;;;5002285;28;20770;-71
2023/08/27 05:07:11;;;;;;;21.73;9.57;;;11.50;100.00;;;;;;5006781;28;20521;-71
2023/08/27 05:09:38;;;;;;;20.45;10.95;;;11.50;100.00;;;;;;4997147;28;20125;-71
2023/08/27 05:12:05;;;;;;;17.60;11.65;;;11.70;100.00;;;;;;4990888;28;20605;-71
2023/08/27 05:14:32;;;;;;;24.63;11.88;;;11.80;100.00;;;;;;4995745;28;20042;-71
2023/08/27 05:16:59;;;;;;;18.20;10.32;;;11.90;100.00;;;;;;5002546;28;20168;-71
2023/08/27 05:19:26;;;;;;;22.73;12.07;;;12.10;100.00;;;;;;4998264;28;20470;-71
2023/08/27 05:21:53;;;;;;;18.67;12.45;;;12.20;100.00;;;;;;4996889;28;20046;-71
2023/08/27 05:24:19;;;;;;;21.50;11.88;;;12.30;100.00;;;;;;5007443;28;20157;-71
2023/08/27 05:26:46;;;;;;;19.38;12.25;;;12.50;100.00;;;;;;5008995;28;20077;-71
2023/08/27 05:29:13;;;;;;;17.20;11.82;;;12.60;100.00;;;;;;5000916;28;20058;-71
2023/08/27 05:31:40;;;;;;;25.95;11.82;;;12.70;100.00;;;;;;5004382;28;20497;-72
2023/08/27 05:34:07;;;;;;;23.17;12.02;;;12.80;100.00;;;;;;5006500;28;20137;-71
2023/08/27 05:36:34;;;;;;;18.77;11.68;;;12.90;100.00;;;;;;5004523;28;20053;-72
2023/08/27 05:39:01;;;;;;;21.40;12.63;;;13.00;100.00;;;;;;4996474;28;20136;-71
2023/08/27 05:41:28;;;;;;;19.63;11.07;;;13.00;100.00;;;;;;5003069;28;20045;-74
2023/08/27 05:43:54;;;;;;;19.73;11.68;;;13.00;100.00;;;;;;4997319;28;20112;-75
2023/08/27 05:46:21;;;;;;;16.35;10.65;;;13.10;100.00;;;;;;4998014;28;20050;-75
2023/08/27 05:48:49;;;;;;;16.42;10.38;;;13.20;99.70;;;;;;5006280;28;20054;-75
2023/08/27 05:51:16;;;;;;;14.75;10.07;;;13.30;99.30;;;;;;5005567;28;20058;-75
2023/08/27 05:53:43;;;;;;;15.82;11.25;;;13.30;99.30;;;;;;5001627;28;20061;-74
2023/08/27 05:56:10;;;;;;;16.65;9.63;;;13.40;99.50;;;;;;5003087;28;20112;-75
2023/08/27 05:58:36;;;;;;;14.98;9.80;;;13.50;99.60;;;;;;5023765;28;20132;-75
2023/08/27 06:01:03;;;;;;;16.17;9.68;;;13.50;99.00;;;;;;5005385;28;20053;-75
2023/08/27 06:03:31;;;;;;;13.88;9.05;;;13.60;99.00;;;;;;5003683;28;20509;-74
2023/08/27 06:05:58;;;;;;;16.55;9.27;;;13.80;98.90;;;;;;5010036;28;20135;-74
2023/08/27 06:08:25;;;;;;;12.77;9.10;;;13.80;97.90;;;;;;5006416;28;20046;-71
2023/08/27 06:10:52;;;;;;;12.52;8.77;;;14.00;98.50;;;;;;5000614;28;20049;-71
2023/08/27 06:13:18;;;;;;;15.38;8.55;;;14.00;97.70;;;;;;5001933;28;20042;-71
2023/08/27 06:15:46;;;;;;;17.83;8.10;;;14.20;97.50;;;;;;5003863;28;20168;-71
2023/08/27 06:18:13;;;;;;;17.50;9.50;;;14.30;96.90;;;;;;5000865;28;20069;-71
2023/08/27 06:20:42;;;;;;;16.48;8.70;;;14.40;97.10;;;;;;5001703;28;20399;-71
2023/08/27 06:23:10;;;;;;;11.18;8.52;;;14.40;96.10;;;;;;5001047;28;20054;-71
2023/08/27 06:25:37;;;;;;;12.30;9.40;;;14.50;95.40;;;;;;4997788;28;20056;-71
2023/08/27 06:28:04;;;;;;;13.60;9.20;;;14.60;95.70;;;;;;5002832;28;20057;-72
2023/08/27 06:30:32;;;;;;;15.05;9.00;;;14.60;95.70;;;;;;4995214;28;20054;-71
2023/08/27 06:32:59;;;;;;;13.48;8.38;;;14.70;95.10;;;;;;5004625;28;20045;-72
2023/08/27 06:35:25;;;;;;;15.73;8.40;;;14.70;94.50;;;;;;5002605;28;20056;-71
2023/08/27 06:37:52;;;;;;;13.57;8.57;;;14.80;94.60;;;;;;5004404;28;20588;-73
2023/08/27 06:40:19;;;;;;;11.70;9.13;;;15.00;93.70;;;;;;5000054;28;20052;-73
2023/08/27 06:42:46;;;;;;;13.98;8.55;;;15.00;93.00;;;;;;5002913;28;20787;-71
2023/08/27 06:45:13;;;;;;;15.02;8.32;;;15.20;94.40;;;;;;4998432;28;20462;-72
2023/08/27 06:47:40;;;;;;;12.45;8.32;;;15.30;94.00;;;;;;5001851;28;20056;-72
2023/08/27 06:50:07;;;;;;;13.90;8.90;;;15.40;93.00;;;;;;4995199;28;20050;-71
2023/08/27 06:52:34;;;;;;;13.07;8.07;;;15.50;92.80;;;;;;5000737;28;20042;-71
2023/08/27 06:55:01;;;;;;;9.68;7.53;;;15.60;92.80;;;;;;5003056;28;20124;-71
2023/08/27 06:57:28;;;;;;;17.75;7.82;;;15.80;92.10;;;;;;5006514;28;20158;-72
2023/08/27 06:59:55;;;;;;;14.07;8.18;;;16.10;91.30;;;;;;5004591;28;20052;-73
2023/08/27 07:02:22;;;;;;;13.18;8.25;;;16.20;89.30;;;;;;5005379;28;20052;-74
2023/08/27 07:04:49;;;;;;;11.60;8.55;;;16.40;88.90;;;;;;5007108;28;20054;-76
2023/08/27 07:07:15;;;;;;;13.38;8.13;;;16.60;88.60;;;;;;5007317;28;20077;-76
2023/08/27 07:09:42;;;;;;;11.75;8.15;;;16.80;88.00;;;;;;5004552;28;20157;-76
2023/08/27 07:12:09;;;;;;;8.00;7.15;;;17.00;87.20;;;;;;5001387;28;20131;-73
2023/08/27 07:14:36;;;;;;;8.43;6.43;;;17.20;87.20;;;;;;5000209;28;20041;-73
2023/08/27 07:17:03;;;;;;;7.25;6.15;;;17.40;86.20;;;;;;5006258;28;20045;-73
2023/08/27 07:19:30;;;;;;;8.40;6.00;;;17.60;83.90;;;;;;5005319;28;20133;-73
2023/08/27 07:21:58;;;;;;;11.18;5.90;;;17.70;83.50;;;;;;5001292;28;20060;-72
2023/08/27 07:24:26;;;;;;;7.05;5.15;;;17.80;82.60;;;;;;5001646;28;20048;-74
2023/08/27 07:26:53;;;;;;;6.38;4.43;;;17.90;82.00;;;;;;5007052;28;20057;-73
2023/08/27 07:29:20;;;;;;;5.95;4.32;;;18.00;81.00;;;;;;5008048;28;20049;-73
2023/08/27 07:31:47;;;;;;;7.93;4.55;;;18.00;80.50;;;;;;5000706;28;20050;-73
2023/08/27 07:34:14;;;;;;;8.57;4.70;;;18.10;81.10;;;;;;5013198;28;20099;-73
2023/08/27 07:36:41;;;;;;;5.68;4.45;;;18.20;80.90;;;;;;5004339;28;20127;-74
2023/08/27 07:39:08;;;;;;;14.65;5.20;;;18.30;80.70;;;;;;5001121;28;20068;-72
2023/08/27 07:41:34;;;;;;;12.38;4.60;;;18.40;81.90;;;;;;5004660;28;20112;-71
2023/08/27 07:44:02;;;;;;;8.02;4.57;;;18.50;81.30;;;;;;4998362;28;20130;-71
2023/08/27 07:46:29;;;;;;;5.28;4.15;;;18.70;80.40;;;;;;4996059;28;20049;-71
2023/08/27 07:48:56;;;;;;;4.45;3.80;;;18.70;80.80;;;;;;4999815;28;20080;-74
2023/08/27 07:51:24;;;;;;;12.10;4.50;;;18.70;80.20;;;;;;4997209;28;20232;-74
2023/08/27 07:53:51;;;;;;;22.42;5.90;;;18.70;79.70;;;;;;4992958;28;20038;-74
2023/08/27 07:56:18;;;;;;;14.35;4.57;;;18.70;80.10;;;;;;4994894;28;20050;-73
2023/08/27 07:58:45;;;;;;;20.38;5.40;;;18.80;78.30;;;;;;5001320;28;20060;-73
2023/08/27 08:01:11;;;;;;;10.73;3.67;;;18.90;78.90;;;;;;4998337;28;20053;-72
2023/08/27 08:03:38;;;;;;;4.50;3.00;;;19.00;78.70;;;;;;5000940;28;20050;-73
2023/08/27 08:06:05;;;;;;;6.43;3.08;;;19.20;78.10;;;;;;4997061;28;20053;-73
2023/08/27 08:08:33;;;;;;;8.57;3.45;;;19.70;77.80;;;;;;4997776;28;20049;-73
2023/08/27 08:11:00;;;;;;;9.93;4.65;;;20.20;75.60;;;;;;4997194;28;20053;-73
2023/08/27 08:13:27;;;;;;;9.40;2.67;;;20.70;73.70;;;;;;4997206;28;20517;-73
2023/08/27 08:15:54;;;;;;;5.28;2.70;;;20.70;71.30;;;;;;4996931;28;20105;-72
2023/08/27 08:18:21;;;;;;;6.10;2.20;;;20.50;72.10;;;;;;4999873;28;20100;-77
2023/08/27 08:20:51;;;;;;;5.28;2.60;;;20.30;72.00;;;;;;4998319;28;20058;-77
2023/08/27 08:23:18;;;;;;;12.10;2.75;;;20.20;73.30;;;;;;5001303;28;20081;-77
2023/08/27 08:25:47;;;;;;;5.90;2.03;;;20.10;74.20;;;;;;4990214;28;20046;-76
2023/08/27 08:28:15;;;;;;;6.05;2.30;;;20.10;73.30;;;;;;4998060;28;20116;-80
2023/08/27 08:30:48;;;;;;;7.45;2.58;;;20.20;74.30;;;;;;4992680;28;20047;-76
2023/08/27 08:33:16;;;;;;;6.45;2.38;;;20.30;73.80;;;;;;4990137;28;20060;-75
2023/08/27 08:35:44;;;;;;;7.88;2.10;;;20.50;72.90;;;;;;4990021;28;20626;-75
2023/08/27 08:38:11;;;;;;;4.68;2.20;;;20.70;71.40;;;;;;5001444;28;20069;-76
2023/08/27 08:40:51;;;;;;;6.72;2.10;;;20.70;71.60;;;;;;4985082;28;20181;-75
2023/08/27 08:43:30;;;;;;;4.13;2.40;;;20.90;71.30;;;;;;4981610;28;21092;-76
2023/08/27 08:46:04;;;;;;;8.80;1.83;;;21.10;70.10;;;;;;4983823;28;20058;-73
2023/08/27 08:48:42;;;;;;;6.97;2.10;;;21.30;71.00;;;;;;4982082;28;20049;-73
2023/08/27 08:51:11;;;;;;;4.20;2.30;;;21.70;69.40;;;;;;4985922;28;20046;-74
2023/08/27 08:53:42;;;;;;;3.15;1.98;;;21.80;69.30;;;;;;4985586;28;20077;-72
2023/08/27 08:56:14;;;;;;;6.38;1.63;;;22.00;67.70;;;;;;4995276;28;20136;-73
2023/08/27 08:58:45;;;;;;;5.13;2.08;;;22.20;68.20;;;;;;4988180;28;20518;-74
2023/08/27 09:01:14;;;;;;;8.48;1.77;;;22.20;66.60;;;;;;4982026;28;20046;-74
2023/08/27 09:03:41;;;;;;;5.43;1.77;;;22.50;66.70;;;;;;4986239;28;20506;-73
2023/08/27 09:06:08;;;;;;;4.57;1.92;;;22.70;65.80;;;;;;4987511;28;20858;-73
2023/08/27 09:08:36;;;;;;;2.80;1.63;;;23.00;65.40;;;;;;5002561;28;20056;-76
2023/08/27 09:11:03;;;;;;;2.88;1.65;;;23.30;64.70;;;;;;5005112;28;20141;-77
2023/08/27 09:13:30;;;;;;;2.72;1.40;;;23.40;63.80;;;;;;5004334;28;20045;-78
2023/08/27 09:15:57;;;;;;;5.93;2.95;;;23.50;62.80;;;;;;4994732;28;20050;-76
2023/08/27 09:18:24;;;;;;;5.25;1.80;;;24.00;62.60;;;;;;5003095;28;20054;-77
2023/08/27 09:20:51;;;;;;;3.03;1.52;;;24.20;62.60;;;;;;5008387;28;20116;-78
2023/08/27 09:23:17;;;;;;;3.50;1.55;;;24.30;61.90;;;;;;5011055;28;20121;-76
2023/08/27 09:25:45;;;;;;;2.47;1.55;;;24.50;61.30;;;;;;5006057;28;20062;-80
2023/08/27 09:28:14;;;;;;;2.97;1.50;;;24.70;59.90;;;;;;5003459;28;20073;-79
2023/08/27 09:30:41;;;;;;;2.38;1.13;;;25.10;59.00;;;;;;5000696;28;20046;-79
2023/08/27 09:33:08;;;;;;;1.73;1.20;;;25.10;58.30;;;;;;5003117;28;20058;-78
2023/08/27 09:35:40;;;;;;;3.65;2.03;;;24.90;58.50;;;;;;5003933;28;20045;-75
2023/08/27 09:38:11;;;;;;;3.97;1.30;;;24.80;58.60;;;;;;5005218;28;20046;-77
2023/08/27 09:40:39;;;;;;;3.70;1.23;;;24.90;59.10;;;;;;4998481;28;20128;-77
2023/08/27 09:43:08;;;;;;;3.47;1.40;;;25.00;58.00;;;;;;4999952;28;20065;-77
2023/08/27 09:45:38;;;;;;;4.22;1.33;;;25.10;58.20;;;;;;5002555;28;20497;-77
2023/08/27 09:48:05;;;;;;;4.15;1.48;;;25.00;58.80;;;;;;5000943;28;20133;-77
2023/08/27 09:50:32;;;;;;;2.50;1.20;;;25.00;57.50;;;;;;4996055;28;20042;-75
2023/08/27 09:53:12;;;;;;;1.88;1.23;;;25.00;58.80;;;;;;4998445;28;20112;-73
2023/08/27 09:55:40;;;;;;;4.85;1.20;;;25.30;58.30;;;;;;5006669;28;20041;-78
2023/08/27 09:58:07;;;;;;;8.15;1.40;;;25.30;57.20;;;;;;5005701;28;20188;-76
2023/08/27 10:00:34;;;;;;;4.55;1.23;;;25.30;57.50;;;;;;4994909;28;20085;-76
2023/08/27 10:03:01;;;;;;;2.67;1.35;;;25.40;57.90;;;;;;5006615;28;20050;-76
2023/08/27 10:05:32;;;;;;;2.70;1.33;;;25.80;58.20;;;;;;4992092;28;20053;-76
2023/08/27 10:08:00;;;;;;;3.08;1.48;;;26.30;57.10;;;;;;4998080;28;20069;-76
2023/08/27 10:10:29;;;;;;;3.95;1.55;;;26.60;56.10;;;;;;4994360;28;20056;-76
2023/08/27 10:12:56;;;;;;;2.83;1.10;;;27.20;54.80;;;;;;5007556;28;20391;-76
2023/08/27 10:15:24;;;;;;;5.05;1.20;;;27.40;52.50;;;;;;4991000;28;21645;-77
2023/08/27 10:17:52;;;;;;;1.70;0.90;;;27.20;51.90;;;;;;4994056;28;20080;-76
2023/08/27 10:20:20;;;;;;;1.98;1.02;;;27.10;53.40;;;;;;4999269;28;20049;-76
2023/08/27 10:22:48;;;;;;;3.40;1.20;;;27.20;53.60;;;;;;4992290;28;20136;-74
2023/08/27 10:25:19;;;;;;;6.65;1.27;;;27.10;53.50;;;;;;4999289;28;20060;-74
2023/08/27 10:27:48;;;;;;;3.90;1.20;;;27.00;52.30;;;;;;4997640;28;20049;-74
2023/08/27 10:30:18;;;;;;;2.22;1.17;;;26.80;53.50;;;;;;4991353;28;21023;-74
2023/08/27 10:32:46;;;;;;;4.95;1.25;;;26.70;52.80;;;;;;5003646;28;20060;-76
2023/08/27 10:35:14;;;;;;;1.75;1.20;;;26.20;53.20;;;;;;5005159;28;20061;-76
2023/08/27 10:37:48;;;;;;;2.22;1.13;;;26.10;54.70;;;;;;4993873;28;20113;-74
2023/08/27 10:40:16;;;;;;;1.23;1.05;;;26.20;53.90;;;;;;4994680;28;20061;-74
2023/08/27 10:42:43;;;;;;;2.58;1.00;;;26.30;53.30;;;;;;5011564;28;20056;-74
2023/08/27 10:45:17;;;;;;;3.10;1.20;;;26.30;53.30;;;;;;5013472;28;20128;-76
2023/08/27 10:48:08;;;;;;;2.35;1.08;;;26.40;53.30;;;;;;4995634;28;20077;-76
2023/08/27 10:50:48;;;;;;;2.25;1.08;;;26.60;53.10;;;;;;4992104;28;20054;-76
2023/08/27 10:53:16;;;;;;;2.00;1.13;;;27.10;53.60;;;;;;5010929;28;20368;-76
2023/08/27 10:55:51;;;;;;;1.92;1.17;;;27.20;52.10;;;;;;5003831;28;20139;-76
2023/08/27 10:58:25;;;;;;;2.58;1.20;;;27.00;51.40;;;;;;4994890;28;20049;-77
2023/08/27 11:01:08;;;;;;;3.60;1.17;;;26.80;52.40;;;;;;4999283;28;20081;-76
2023/08/27 11:03:56;;;;;;;1.33;1.17;;;26.70;53.50;;;;;;4992613;28;21124;-77
2023/08/27 11:06:46;;;;;;;5.57;1.30;;;26.70;52.10;;;;;;5004495;28;20049;-77
2023/08/27 11:09:21;;;;;;;4.90;1.30;;;26.90;52.50;;;;;;5007365;28;20180;-82
2023/08/27 11:11:54;;;;;;;6.10;1.27;;;26.80;52.70;;;;;;5000745;28;20144;-81
2023/08/27 11:14:23;;;;;;;2.67;1.27;;;26.70;54.10;;;;;;5004152;28;20425;-81
2023/08/27 11:20:23;;;;;;;1.65;1.13;;;26.50;52.80;;;;;;4990791;28;20046;-73
2023/08/27 11:22:56;;;;;;;;;;;26.60;53.00;;;;;;4995631;28;20482;-75
2023/08/27 11:25:28;;;;;;;2.63;1.40;;;26.50;52.40;;;;;;4997690;28;20284;-78
2023/08/27 11:28:00;;;;;;;4.20;1.27;;;26.30;52.70;;;;;;5001669;28;20165;-78
2023/08/27 11:30:28;;;;;;;8.07;1.20;;;26.10;53.80;;;;;;4996250;28;20526;-78
2023/08/27 11:32:56;;;;;;;5.05;1.42;;;26.00;54.10;;;;;;4992870;28;20052;-77
2023/08/27 11:35:26;;;;;;;2.90;1.33;;;26.10;52.40;;;;;;4981371;28;20054;-77
2023/08/27 11:37:56;;;;;;;3.40;0.98;;;25.90;52.70;;;;;;4993431;28;20057;-76
2023/08/27 11:40:25;;;;;;;2.25;1.20;;;25.80;54.00;;;;;;4992642;28;20053;-75
2023/08/27 11:42:53;;;;;;;2.17;1.33;;;25.40;54.10;;;;;;4984464;28;20852;-74
2023/08/27 11:45:35;;;;;;;3.92;1.30;;;25.40;54.30;;;;;;4998850;28;20557;-75
2023/08/27 11:48:06;;;;;;;1.85;1.30;;;25.70;53.90;;;;;;5000788;28;21294;-74
2023/08/27 11:50:34;;;;;;;7.65;1.60;;;25.80;54.30;;;;;;4997423;28;20050;-70
2023/08/27 11:53:01;;;;;;;2.55;1.55;;;26.10;53.20;;;;;;5000408;28;20149;-71
2023/08/27 11:55:29;;;;;;;3.90;1.33;;;26.10;52.70;;;;;;4998927;28;20140;-72
2023/08/27 11:57:55;;;;;;;5.70;1.40;;;26.00;54.00;;;;;;5000731;28;20050;-71
2023/08/27 12:00:22;;;;;;;2.42;1.45;;;26.00;53.90;;;;;;4996301;28;20085;-72
2023/08/27 12:02:49;;;;;;;3.92;1.90;;;25.80;53.60;;;;;;4991619;23;20050;-71
2023/08/27 12:05:27;;;;;;;5.13;1.50;;;25.70;54.90;;;;;;4999929;28;20478;-73
2023/08/27 12:07:54;;;;;;;1.95;1.15;;;25.80;54.20;;;;;;5000373;28;20072;-76
2023/08/27 12:10:23;;;;;;;3.50;1.65;;;25.90;53.90;;;;;;4990238;28;20049;-74
2023/08/27 12:12:50;;;;;;;7.95;1.65;;;26.10;53.90;;;;;;5010961;23;20056;-71
2023/08/27 12:15:17;;;;;;;5.10;1.58;;;25.90;53.30;;;;;;4988491;28;20085;-72
2023/08/27 12:17:47;;;;;;;3.65;1.58;;;25.60;53.30;;;;;;4990768;28;20077;-71
2023/08/27 12:20:15;;;;;;;3.72;1.65;;;25.60;56.30;;;;;;4993590;28;20045;-72
2023/08/27 12:22:42;;;;;;;4.50;1.80;;;25.50;56.00;;;;;;4992356;28;20042;-72
2023/08/27 12:25:09;;;;;;;6.53;1.80;;;25.50;55.10;;;;;;4992237;28;20155;-72
2023/08/27 12:27:36;;;;;;;2.05;1.35;;;25.20;54.60;;;;;;4989255;28;20451;-73
2023/08/27 12:30:05;;;;;;;4.55;1.67;;;25.20;55.00;;;;;;4990047;28;20875;-71
2023/08/27 12:32:34;;;;;;;3.25;1.60;;;24.90;56.20;;;;;;4996514;28;20775;-71
2023/08/27 12:35:01;;;;;;;3.08;1.95;;;24.70;54.60;;;;;;4996950;28;20060;-71
2023/08/27 12:37:29;;;;;;;3.60;1.48;;;24.60;55.60;;;;;;4997156;28;20050;-72
2023/08/27 12:39:55;;;;;;;3.58;1.50;;;24.60;55.00;;;;;;5009071;28;20058;-71
2023/08/27 12:42:25;;;;;;;4.50;1.65;;;24.60;54.80;;;;;;5003416;28;20058;-72